Time;durP1;ratioP1;P1;durP2;ratioP2;P2;SDS_P1;SDS_P2;PMS_P1;PMS_P2;Temp;Humidity;BMP_temperature;BMP_pressure;BME280_temperature;BME280_humidity;BME280_pressure;Samples;Min_cycle;Max_cycle;Signal;HPM_P1;HPM_P2
2021/01/16 00:00:52;;;;;;;49.50;23.77;;;;;;;-8.54;77.34;100691.84;1655707;84;26559;-79
2021/01/16 00:03:18;;;;;;;47.47;21.70;;;;;;;-8.50;77.37;100689.61;1652998;84;26569;-80
2021/01/16 00:05:46;;;;;;;48.97;21.97;;;;;;;-8.50;77.30;100692.14;1647318;84;25845;-80
2021/01/16 00:08:17;;;;;;;43.80;20.30;;;;;;;-8.53;77.30;100687.59;1651718;84;25848;-80
2021/01/16 00:10:50;;;;;;;53.93;22.90;;;;;;;-8.57;77.18;100680.48;1650581;84;26383;-80
2021/01/16 00:13:21;;;;;;;53.17;26.53;;;;;;;-8.59;77.28;100680.97;1657738;84;25661;-80
2021/01/16 00:15:48;;;;;;;48.23;22.83;;;;;;;-8.62;77.21;100686.52;1654970;84;25687;-80
2021/01/16 00:18:19;;;;;;;46.90;22.60;;;;;;;-8.61;77.43;100690.30;1643324;84;25872;-80
2021/01/16 00:20:52;;;;;;;47.33;22.50;;;;;;;-8.62;77.37;100692.86;1649557;84;25817;-80
2021/01/16 00:23:26;;;;;;;49.67;22.00;;;;;;;-8.65;77.34;100696.73;1657328;84;25773;-80
2021/01/16 00:25:53;;;;;;;49.83;22.57;;;;;;;-8.66;77.48;100692.55;1655883;84;25867;-80
2021/01/16 00:28:23;;;;;;;48.03;23.07;;;;;;;-8.63;77.55;100693.73;1658112;84;26404;-80
2021/01/16 00:30:51;;;;;;;49.65;23.32;;;;;;;-8.61;77.60;100684.41;1649791;84;25922;-80
2021/01/16 00:33:21;;;;;;;50.50;23.33;;;;;;;-8.60;77.53;100688.16;1647180;84;25803;-80
2021/01/16 00:35:49;;;;;;;46.43;22.10;;;;;;;-8.61;77.54;100686.50;1644246;84;25508;-80
2021/01/16 00:38:17;;;;;;;47.80;23.90;;;;;;;-8.60;77.58;100683.53;1635908;84;25878;-80
2021/01/16 00:40:44;;;;;;;49.27;23.77;;;;;;;-8.60;77.58;100683.09;1648317;84;25777;-80
2021/01/16 00:43:14;;;;;;;54.47;26.20;;;;;;;-8.62;77.47;100683.58;1656010;84;26309;-80
2021/01/16 00:45:46;;;;;;;51.55;22.35;;;;;;;-8.64;77.46;100683.22;1657594;84;25830;-80
2021/01/16 00:48:16;;;;;;;50.40;24.00;;;;;;;-8.65;77.47;100689.13;1652580;84;26378;-80
2021/01/16 00:50:45;;;;;;;46.75;20.52;;;;;;;-8.66;77.50;100694.63;1662759;84;25462;-80
2021/01/16 00:53:12;;;;;;;55.73;25.70;;;;;;;-8.67;77.53;100688.36;1646153;85;25724;-79
2021/01/16 00:55:40;;;;;;;46.03;20.20;;;;;;;-8.71;77.50;100687.13;1662554;84;25821;-80
2021/01/16 00:58:18;;;;;;;59.00;25.23;;;;;;;-8.73;77.49;100690.16;1635259;84;25711;-79
2021/01/16 01:00:49;;;;;;;48.07;22.27;;;;;;;-8.79;77.48;100680.58;1630736;86;25501;-80
2021/01/16 01:03:21;;;;;;;57.60;24.87;;;;;;;-8.79;77.61;100686.47;1632333;84;25926;-80
2021/01/16 01:05:50;;;;;;;53.43;25.20;;;;;;;-8.84;77.59;100684.50;1647920;84;25674;-80
2021/01/16 01:08:16;;;;;;;57.07;24.53;;;;;;;-8.85;77.83;100675.66;1657501;84;25536;-80
2021/01/16 01:10:48;;;;;;;53.53;25.40;;;;;;;-8.82;77.98;100676.41;1664530;84;26433;-80
2021/01/16 01:13:15;;;;;;;52.37;24.87;;;;;;;-8.77;78.02;100679.68;1654440;84;26383;-80
2021/01/16 01:15:41;;;;;;;54.37;24.17;;;;;;;-8.71;78.32;100677.44;1652716;84;25596;-80
2021/01/16 01:18:08;;;;;;;56.60;26.03;;;;;;;-8.68;78.24;100676.53;1645208;84;25679;-80
2021/01/16 01:20:34;;;;;;;43.73;21.93;;;;;;;-8.63;78.33;100675.56;1648135;84;25880;-80
2021/01/16 01:23:02;;;;;;;50.20;23.07;;;;;;;-8.58;78.31;100670.39;1663037;84;25821;-80
2021/01/16 01:25:28;;;;;;;50.30;22.27;;;;;;;-8.59;78.29;100669.57;1665773;84;25762;-80
2021/01/16 01:27:58;;;;;;;48.23;21.73;;;;;;;-8.55;78.34;100670.32;1650437;84;25311;-79
2021/01/16 01:30:28;;;;;;;41.85;22.65;;;;;;;-8.49;78.40;100670.17;1660492;84;25902;-80
2021/01/16 01:32:56;;;;;;;49.30;24.52;;;;;;;-8.44;78.54;100666.27;1656853;84;25742;-80
2021/01/16 01:35:23;;;;;;;47.47;23.67;;;;;;;-8.37;78.53;100666.05;1652741;85;25912;-80
2021/01/16 01:37:54;;;;;;;51.87;23.70;;;;;;;-8.32;78.56;100670.98;1659079;84;25755;-80
2021/01/16 01:40:22;;;;;;;;;;;;;;;-8.33;78.39;100666.80;1642700;85;26456;-80
2021/01/16 01:42:51;;;;;;;49.93;24.17;;;;;;;-8.31;78.60;100675.20;1657329;84;25813;-80
2021/01/16 01:45:19;;;;;;;47.83;23.70;;;;;;;-8.28;78.62;100668.79;1683654;83;26491;-80
2021/01/16 01:47:47;;;;;;;48.13;23.37;;;;;;;-8.23;78.67;100668.69;1660180;84;25454;-80
2021/01/16 01:50:16;;;;;;;63.37;27.77;;;;;;;-8.21;78.73;100660.17;1658724;84;25429;-80
2021/01/16 01:52:43;;;;;;;63.40;27.73;;;;;;;-8.19;78.69;100656.31;1659377;84;25710;-80
2021/01/16 01:55:12;;;;;;;62.23;27.30;;;;;;;-8.11;78.82;100656.95;1629859;84;26448;-80
2021/01/16 01:57:45;;;;;;;63.33;28.20;;;;;;;-8.08;78.77;100656.42;1659001;84;25582;-80
2021/01/16 02:00:14;;;;;;;57.67;28.33;;;;;;;-8.05;78.70;100661.45;1649265;84;26357;-80
2021/01/16 02:03:02;;;;;;;59.40;26.07;;;;;;;-8.04;78.71;100660.56;1639497;86;25741;-80
2021/01/16 02:05:29;;;;;;;58.40;25.10;;;;;;;-7.99;78.75;100664.26;1639834;86;25795;-80
2021/01/16 02:07:58;;;;;;;50.47;25.03;;;;;;;-7.90;78.90;100658.93;1641927;86;25740;-80
2021/01/16 02:10:24;;;;;;;50.13;24.80;;;;;;;-7.85;78.88;100664.72;1635690;86;25814;-80
2021/01/16 02:12:56;;;;;;;57.73;26.10;;;;;;;-7.83;78.76;100660.44;1640308;86;27117;-80
2021/01/16 02:15:50;;;;;;;40.80;21.13;;;;;;;-7.82;78.83;100657.02;1639401;86;26326;-80
2021/01/16 02:18:46;;;;;;;48.73;22.20;;;;;;;-7.79;78.92;100662.45;1638272;86;25849;-80
2021/01/16 02:21:18;;;;;;;52.27;24.20;;;;;;;-7.82;78.83;100652.39;1630274;86;26603;-80
2021/01/16 02:23:52;;;;;;;51.40;24.30;;;;;;;-7.86;78.89;100660.53;1637165;86;25822;-80
2021/01/16 02:26:24;;;;;;;48.70;22.93;;;;;;;-7.86;79.07;100655.87;1629424;86;25732;-80
2021/01/16 02:28:58;;;;;;;50.97;23.70;;;;;;;-7.79;79.25;100641.33;1640668;86;26319;-80
2021/01/16 02:31:29;;;;;;;47.07;21.53;;;;;;;-7.73;79.35;100645.78;1631707;86;25877;-79
2021/01/16 02:34:21;;;;;;;46.13;21.33;;;;;;;-7.69;79.33;100643.58;1640963;85;25891;-80
2021/01/16 02:37:19;;;;;;;43.93;21.23;;;;;;;-7.68;79.42;100648.20;1624525;86;26444;-80
2021/01/16 02:40:14;;;;;;;45.10;22.43;;;;;;;-7.66;79.54;100647.73;1649916;85;25761;-80
2021/01/16 02:43:04;;;;;;;48.17;24.60;;;;;;;-7.61;79.52;100643.37;1647300;85;25803;-80
2021/01/16 02:46:03;;;;;;;50.48;23.27;;;;;;;-7.62;79.50;100642.52;1647310;85;33253;-80
2021/01/16 02:48:44;;;;;;;41.93;21.30;;;;;;;-7.60;79.50;100642.04;1650866;85;26293;-80
2021/01/16 02:51:15;;;;;;;43.23;22.37;;;;;;;-7.61;79.52;100643.37;1647565;85;25770;-80
2021/01/16 02:53:44;;;;;;;48.47;22.60;;;;;;;-7.56;79.70;100637.70;1639249;85;25695;-80
2021/01/16 02:56:15;;;;;;;47.27;25.17;;;;;;;-7.56;79.64;100644.05;1625804;86;25696;-80
2021/01/16 02:58:41;;;;;;;46.07;22.50;;;;;;;-7.53;79.72;100643.13;1649129;85;25687;-80
2021/01/16 03:01:08;;;;;;;44.40;21.70;;;;;;;-7.47;79.88;100645.52;1647459;85;26332;-81
2021/01/16 03:03:38;;;;;;;47.87;23.50;;;;;;;-7.46;79.84;100639.55;1645970;85;25758;-81
2021/01/16 03:06:05;;;;;;;53.95;24.80;;;;;;;-7.46;79.84;100635.30;1643530;85;26431;-80
2021/01/16 03:08:31;;;;;;;53.77;24.80;;;;;;;-7.40;79.91;100630.48;1644611;85;26377;-80
2021/01/16 03:10:59;;;;;;;48.67;23.23;;;;;;;-7.40;79.86;100631.31;1634665;85;25240;-81
2021/01/16 03:13:29;;;;;;;47.87;22.97;;;;;;;-7.42;79.76;100630.96;1646482;85;25838;-81
2021/01/16 03:15:59;;;;;;;;;;;;;;;-7.40;79.91;100633.02;1649742;85;25867;-80
2021/01/16 03:18:29;;;;;;;44.65;23.30;;;;;;;-7.38;79.98;100637.18;1639912;86;25771;-81
2021/01/16 03:21:00;;;;;;;51.10;22.82;;;;;;;-7.38;80.06;100639.72;1640596;86;25704;-80
2021/01/16 03:23:27;;;;;;;43.33;22.13;;;;;;;-7.34;80.15;100626.94;1623884;86;25857;-81
2021/01/16 03:25:53;;;;;;;46.83;21.90;;;;;;;-7.28;80.27;100634.39;1640627;85;25858;-80
2021/01/16 03:28:19;;;;;;;47.03;22.20;;;;;;;-7.27;80.10;100633.06;1639731;86;25774;-80
2021/01/16 03:30:46;;;;;;;49.20;23.03;;;;;;;-7.28;80.09;100640.30;1639764;86;25852;-80
2021/01/16 03:33:12;;;;;;;42.83;21.20;;;;;;;-7.26;80.09;100628.81;1637945;86;26323;-79
2021/01/16 03:35:39;;;;;;;45.87;21.30;;;;;;;-7.25;80.15;100633.03;1639933;86;25637;-80
2021/01/16 03:38:05;;;;;;;44.40;20.97;;;;;;;-7.24;80.09;100628.34;1639670;86;26474;-80
2021/01/16 03:40:31;;;;;;;39.63;20.30;;;;;;;-7.26;80.16;100626.27;1638834;86;25864;-80
2021/01/16 03:42:58;;;;;;;42.30;21.80;;;;;;;-7.24;80.24;100624.53;1631039;85;26403;-80
2021/01/16 03:45:39;;;;;;;45.87;21.07;;;;;;;-7.24;80.34;100619.45;1638412;86;26483;-80
2021/01/16 03:48:07;;;;;;;38.27;20.67;;;;;;;-7.24;80.47;100620.72;1638799;86;26367;-80
2021/01/16 03:50:34;;;;;;;42.93;18.70;;;;;;;-7.20;80.59;100623.58;1633915;86;25838;-81
2021/01/16 03:53:00;;;;;;;43.17;19.13;;;;;;;-7.21;80.75;100623.98;1625516;86;25863;-80
2021/01/16 03:55:27;;;;;;;41.83;21.20;;;;;;;-7.17;80.86;100624.30;1637078;86;25787;-80
2021/01/16 03:57:53;;;;;;;39.03;17.13;;;;;;;-7.15;80.80;100616.63;1632668;86;26305;-80
2021/01/16 04:00:21;;;;;;;38.17;19.07;;;;;;;-7.13;80.83;100621.67;1637986;84;25712;-80
2021/01/16 04:02:48;;;;;;;32.17;15.63;;;;;;;-7.18;80.77;100621.34;1668195;84;26451;-80
2021/01/16 04:05:14;;;;;;;34.07;16.93;;;;;;;-7.17;80.96;100616.69;1668636;84;25865;-80
2021/01/16 04:07:41;;;;;;;38.03;18.17;;;;;;;-7.17;80.94;100614.14;1668341;84;26570;-80
2021/01/16 04:10:08;;;;;;;30.40;16.90;;;;;;;-7.18;81.02;100612.91;1665579;84;25785;-81
2021/01/16 04:12:34;;;;;;;35.30;16.63;;;;;;;-7.16;81.18;100620.05;1661035;84;25350;-80
2021/01/16 04:15:02;;;;;;;37.63;19.27;;;;;;;-7.13;81.23;100617.41;1668010;84;26423;-80
2021/01/16 04:17:37;;;;;;;35.67;17.10;;;;;;;-7.10;81.25;100616.49;1668189;84;26408;-80
2021/01/16 04:20:04;;;;;;;37.90;18.07;;;;;;;-7.06;81.33;100623.98;1663124;84;25714;-80
2021/01/16 04:22:37;;;;;;;39.83;16.83;;;;;;;-7.05;81.36;100615.47;1668393;84;26374;-81
2021/01/16 04:25:06;;;;;;;40.10;17.93;;;;;;;-7.04;81.31;100622.65;1670555;84;25725;-81
2021/01/16 04:27:33;;;;;;;38.07;18.47;;;;;;;-7.02;81.36;100626.80;1663109;84;25798;-81
2021/01/16 04:30:03;;;;;;;35.57;18.83;;;;;;;-6.99;81.38;100618.27;1658462;84;25896;-81
2021/01/16 04:32:29;;;;;;;34.43;17.75;;;;;;;-6.99;81.33;100617.81;1662442;84;25843;-81
2021/01/16 04:34:56;;;;;;;34.27;17.00;;;;;;;-7.00;81.35;100611.09;1668686;84;25815;-81
2021/01/16 04:37:22;;;;;;;36.37;16.93;;;;;;;-6.99;81.42;100601.30;1664125;84;25822;-81
2021/01/16 04:39:49;;;;;;;39.53;17.90;;;;;;;-6.96;81.43;100592.34;1670635;84;25842;-80
2021/01/16 04:42:15;;;;;;;35.70;17.50;;;;;;;-6.92;81.49;100596.88;1663777;84;25727;-81
2021/01/16 04:44:45;;;;;;;31.07;17.13;;;;;;;-6.88;81.47;100598.88;1668167;84;25729;-80
2021/01/16 04:47:18;;;;;;;31.42;16.12;;;;;;;-6.85;81.45;100602.59;1659059;84;35449;-81
2021/01/16 04:49:45;;;;;;;38.50;17.47;;;;;;;-6.81;81.48;100606.70;1669308;84;25826;-81
2021/01/16 04:52:12;;;;;;;39.50;17.43;;;;;;;-6.77;81.47;100597.64;1664065;84;25799;-81
2021/01/16 04:54:40;;;;;;;33.63;16.10;;;;;;;-6.75;81.41;100602.69;1682060;83;25789;-81
2021/01/16 04:57:11;;;;;;;34.47;15.37;;;;;;;-6.73;81.37;100599.67;1675450;83;25674;-81
2021/01/16 04:59:37;;;;;;;32.87;16.40;;;;;;;-6.74;81.35;100604.34;1676469;83;25863;-81
2021/01/16 05:02:09;;;;;;;31.70;16.50;;;;;;;-6.77;81.34;100612.89;1679855;83;25802;-81
2021/01/16 05:04:39;;;;;;;30.57;14.53;;;;;;;-6.78;81.34;100611.24;1682330;83;26430;-81
2021/01/16 05:07:09;;;;;;;30.50;15.00;;;;;;;-6.76;81.34;100603.58;1684254;83;25665;-81
2021/01/16 05:09:40;;;;;;;25.10;15.10;;;;;;;-6.82;81.40;100599.53;1669862;84;26292;-81
2021/01/16 05:12:34;;;;;;;33.83;17.80;;;;;;;-6.87;81.31;100604.37;1660593;84;26346;-81
2021/01/16 05:15:12;;;;;;;41.07;20.87;;;;;;;-6.94;81.30;100615.14;1664207;84;25863;-81
2021/01/16 05:17:48;;;;;;;43.33;20.70;;;;;;;-6.92;80.89;100614.66;1659609;84;26589;-81
2021/01/16 05:20:15;;;;;;;52.47;22.33;;;;;;;-7.05;80.33;100619.72;1660905;84;26368;-80
2021/01/16 05:22:42;;;;;;;47.57;23.03;;;;;;;-7.26;79.91;100626.27;1671670;84;25636;-81
2021/01/16 05:25:10;;;;;;;46.97;22.07;;;;;;;-7.35;79.91;100621.47;1656488;84;25881;-81
2021/01/16 05:27:38;;;;;;;44.60;21.27;;;;;;;-7.47;79.75;100622.67;1669326;84;25600;-81
2021/01/16 05:30:09;;;;;;;42.93;21.97;;;;;;;-7.52;79.98;100628.31;1666198;84;25905;-81
2021/01/16 05:32:36;;;;;;;42.30;22.20;;;;;;;-7.59;79.93;100633.98;1665954;84;25844;-81
2021/01/16 05:35:23;;;;;;;45.03;23.77;;;;;;;-7.64;80.05;100634.13;1658796;84;25717;-81
2021/01/16 05:37:49;;;;;;;42.37;23.63;;;;;;;-7.69;79.87;100632.60;1667061;84;25315;-81
2021/01/16 05:40:18;;;;;;;46.60;23.33;;;;;;;-7.76;80.03;100638.27;1656442;84;25699;-81
2021/01/16 05:42:45;;;;;;;47.80;23.33;;;;;;;-7.80;80.00;100636.70;1665995;84;25701;-81
2021/01/16 05:45:12;;;;;;;45.23;21.60;;;;;;;-7.71;80.29;100636.44;1641147;84;25705;-81
2021/01/16 05:47:43;;;;;;;46.17;21.43;;;;;;;-7.69;80.12;100635.97;1663074;84;25794;-81
2021/01/16 05:50:11;;;;;;;42.90;22.97;;;;;;;-7.69;80.07;100631.33;1665613;84;25668;-81
2021/01/16 05:52:40;;;;;;;46.17;21.93;;;;;;;-7.67;80.10;100628.29;1654392;84;25959;-80
2021/01/16 05:55:08;;;;;;;38.47;21.60;;;;;;;-7.64;80.00;100624.39;1655132;84;25886;-81
2021/01/16 05:57:39;;;;;;;46.57;22.20;;;;;;;-7.58;79.90;100625.52;1666061;84;26282;-81
2021/01/16 06:00:10;;;;;;;45.80;21.53;;;;;;;-7.56;79.97;100621.65;1664190;84;25786;-81
2021/01/16 06:02:39;;;;;;;43.70;21.77;;;;;;;-7.58;79.70;100617.91;1643084;84;25775;-81
2021/01/16 06:05:08;;;;;;;43.13;20.37;;;;;;;-7.60;79.62;100614.56;1654834;84;26277;-81
2021/01/16 06:07:37;;;;;;;43.13;20.53;;;;;;;-7.67;79.34;100599.11;1657062;84;25666;-81
2021/01/16 06:10:09;;;;;;;38.33;19.43;;;;;;;-7.70;79.29;100604.28;1639572;84;25827;-81
2021/01/16 06:12:36;;;;;;;32.73;17.57;;;;;;;-7.78;79.20;100603.66;1647630;84;25773;-80
2021/01/16 06:15:07;;;;;;;39.70;20.53;;;;;;;-7.82;78.99;100609.27;1655453;84;26402;-81
2021/01/16 06:17:37;;;;;;;36.60;17.77;;;;;;;-7.94;79.14;100600.70;1654432;84;25801;-81
2021/01/16 06:20:07;;;;;;;38.83;19.75;;;;;;;-7.88;79.37;100595.05;1658385;84;25621;-81
2021/01/16 06:22:34;;;;;;;37.40;16.87;;;;;;;-7.79;79.41;100596.94;1653123;84;25607;-81
2021/01/16 06:25:02;;;;;;;31.47;15.43;;;;;;;-7.71;79.46;100606.44;1642172;84;25710;-81
2021/01/16 06:27:32;;;;;;;29.93;15.80;;;;;;;-7.72;78.94;100605.61;1648585;84;25762;-81
2021/01/16 06:30:02;;;;;;;36.25;17.65;;;;;;;-7.76;78.84;100603.19;1638017;85;25719;-81
2021/01/16 06:32:29;;;;;;;33.05;17.20;;;;;;;-7.79;78.68;100610.45;1658216;84;26400;-81
2021/01/16 06:35:09;;;;;;;33.73;16.97;;;;;;;-7.82;78.55;100609.27;1651056;84;25791;-81
2021/01/16 06:37:51;;;;;;;36.68;17.48;;;;;;;-7.82;78.76;100597.85;1661487;84;25789;-81
2021/01/16 06:40:32;;;;;;;34.10;17.37;;;;;;;-7.84;78.65;100600.42;1654386;84;25746;-81
2021/01/16 06:43:01;;;;;;;82.90;43.43;;;;;;;-7.78;79.03;100599.41;1642932;85;25543;-81
2021/01/16 06:45:29;;;;;;;37.10;19.37;;;;;;;-7.70;78.95;100602.56;1657769;84;25903;-81
2021/01/16 06:48:01;;;;;;;38.47;17.40;;;;;;;-7.67;79.00;100602.47;1655038;84;25752;-79
2021/01/16 06:50:30;;;;;;;35.93;17.57;;;;;;;-7.64;78.87;100603.69;1647071;85;25962;-81
2021/01/16 06:52:57;;;;;;;34.67;18.82;;;;;;;-7.55;79.03;100598.78;1655257;84;25785;-81
2021/01/16 06:55:23;;;;;;;35.60;17.47;;;;;;;-7.51;78.90;100592.72;1650188;84;26484;-80
2021/01/16 06:57:50;;;;;;;36.57;18.07;;;;;;;-7.44;78.83;100590.41;1648038;84;25784;-80
2021/01/16 07:00:17;;;;;;;34.83;18.13;;;;;;;-7.45;78.79;100587.91;1652841;84;25929;-81
2021/01/16 07:02:48;;;;;;;40.73;18.43;;;;;;;-7.39;78.88;100589.84;1637088;84;25831;-81
2021/01/16 07:05:21;;;;;;;32.53;17.37;;;;;;;-7.38;78.78;100585.59;1640726;85;26625;-81
2021/01/16 07:07:55;;;;;;;36.10;17.63;;;;;;;-7.38;78.54;100580.06;1645427;85;25981;-80
2021/01/16 07:10:22;;;;;;;35.57;18.73;;;;;;;-7.39;78.58;100580.95;1640407;85;25770;-81
2021/01/16 07:12:51;;;;;;;36.65;18.42;;;;;;;-7.34;78.63;100580.80;1646431;85;25761;-81
2021/01/16 07:15:20;;;;;;;36.10;19.62;;;;;;;-7.27;78.74;100569.59;1639358;85;25827;-81
2021/01/16 07:17:48;;;;;;;51.40;26.37;;;;;;;-7.22;78.73;100573.27;1654120;85;25712;-80
2021/01/16 07:20:15;;;;;;;41.20;22.57;;;;;;;-7.25;78.50;100567.02;1657469;85;25818;-81
2021/01/16 07:22:44;;;;;;;36.17;18.43;;;;;;;-7.28;78.48;100573.46;1648476;85;25847;-81
2021/01/16 07:25:13;;;;;;;38.97;18.43;;;;;;;-7.28;78.40;100570.92;1645143;85;25885;-81
2021/01/16 07:27:41;;;;;;;36.93;18.07;;;;;;;-7.30;78.22;100563.78;1642049;85;25750;-80
2021/01/16 07:30:14;;;;;;;38.57;21.07;;;;;;;-7.31;78.30;100562.10;1649361;85;25738;-81
2021/01/16 07:32:47;;;;;;;43.33;22.70;;;;;;;-7.31;78.41;100554.07;1622872;86;25727;-81
2021/01/16 07:35:17;;;;;;;45.97;23.43;;;;;;;-7.28;78.38;100556.52;1646844;85;26954;-81
2021/01/16 07:37:45;;;;;;;42.53;22.00;;;;;;;-7.23;78.59;100548.73;1645287;85;25676;-81
2021/01/16 07:40:27;;;;;;;53.03;27.10;;;;;;;-7.16;78.71;100554.02;1637024;85;26353;-81
2021/01/16 07:43:00;;;;;;;51.80;26.77;;;;;;;-7.15;78.66;100556.94;1650143;85;25837;-81
2021/01/16 07:45:33;;;;;;;49.40;26.67;;;;;;;-7.17;78.67;100548.56;1644549;85;25806;-81
2021/01/16 07:48:05;;;;;;;49.37;25.23;;;;;;;-7.14;78.99;100544.66;1637006;85;26542;-81
2021/01/16 07:50:37;;;;;;;47.13;24.03;;;;;;;-7.08;79.18;100546.17;1643402;85;25873;-80
2021/01/16 07:53:07;;;;;;;50.23;23.07;;;;;;;-7.04;79.40;100540.95;1655726;85;26412;-81
2021/01/16 07:55:43;;;;;;;38.42;20.27;;;;;;;-7.00;79.49;100537.42;1645226;85;25780;-80
2021/01/16 07:58:18;;;;;;;45.67;20.60;;;;;;;-6.96;79.71;100533.06;1654078;85;25812;-81
2021/01/16 08:01:10;;;;;;;45.03;22.57;;;;;;;-6.93;79.85;100526.20;1631168;85;26286;-81
2021/01/16 08:04:24;;;;;;;44.00;21.67;;;;;;;-6.93;79.92;100516.03;1642550;84;25871;-81
2021/01/16 08:07:05;;;;;;;56.27;27.60;;;;;;;-6.87;80.06;100515.45;1643140;85;26586;-81
2021/01/16 08:09:57;;;;;;;59.27;27.80;;;;;;;-6.76;80.37;100510.39;1643525;85;25816;-81
2021/01/16 08:12:27;;;;;;;47.73;26.43;;;;;;;-6.62;80.54;100507.38;1643075;85;25656;-81
2021/01/16 08:15:02;;;;;;;42.97;23.60;;;;;;;-6.52;80.47;100515.09;1643682;85;25934;-81
2021/01/16 08:17:38;;;;;;;42.33;23.40;;;;;;;-6.48;80.39;100509.00;1646664;85;25794;-80
2021/01/16 08:20:18;;;;;;;43.33;21.97;;;;;;;-6.39;80.56;100499.39;1640963;85;25797;-80
2021/01/16 08:22:51;;;;;;;41.18;20.35;;;;;;;-6.36;80.38;100497.55;1648646;85;25901;-79
2021/01/16 08:25:24;;;;;;;43.13;21.57;;;;;;;-6.31;80.46;100500.77;1636614;85;25817;-81
2021/01/16 08:27:53;;;;;;;46.27;21.80;;;;;;;-6.24;80.50;100500.12;1646259;85;25862;-81
2021/01/16 08:30:27;;;;;;;44.67;22.93;;;;;;;-6.20;80.42;100491.48;1617466;85;25898;-80
2021/01/16 08:33:04;;;;;;;47.20;23.13;;;;;;;-6.15;80.53;100490.06;1636681;85;25758;-80
2021/01/16 08:35:48;;;;;;;40.57;20.73;;;;;;;-6.10;80.59;100492.00;1636373;85;26641;-80
2021/01/16 08:38:22;;;;;;;41.33;20.47;;;;;;;-6.02;80.68;100490.00;1647665;85;25695;-80
2021/01/16 08:41:05;;;;;;;42.60;23.87;;;;;;;-5.96;80.67;100492.31;1641933;85;26332;-80
2021/01/16 08:43:44;;;;;;;46.17;24.40;;;;;;;-5.92;80.64;100486.62;1644364;85;25833;-81
2021/01/16 08:46:21;;;;;;;44.60;22.77;;;;;;;-5.82;80.88;100490.49;1643506;85;25802;-80
2021/01/16 08:49:09;;;;;;;43.83;19.53;;;;;;;-5.75;80.83;100488.11;1632888;85;25811;-81
2021/01/16 08:51:45;;;;;;;47.20;21.90;;;;;;;-5.71;80.71;100488.81;1645994;85;25718;-81
2021/01/16 08:54:22;;;;;;;41.63;20.30;;;;;;;-5.68;80.82;100484.87;1625436;85;25752;-80
2021/01/16 08:57:01;;;;;;;37.03;19.60;;;;;;;-5.61;80.95;100475.67;1633678;85;25913;-81
2021/01/16 08:59:30;;;;;;;40.37;19.77;;;;;;;-5.55;80.91;100473.78;1641302;85;25862;-81
2021/01/16 09:02:13;;;;;;;36.60;21.80;;;;;;;-5.48;81.01;100477.31;1646715;85;25858;-80
2021/01/16 09:04:44;;;;;;;40.37;20.20;;;;;;;-5.42;81.07;100474.52;1639179;85;25714;-80
2021/01/16 09:07:18;;;;;;;36.83;20.70;;;;;;;-5.36;81.08;100465.80;1638293;85;25915;-80
2021/01/16 09:10:06;;;;;;;36.30;19.40;;;;;;;-5.37;80.99;100475.17;1648746;85;25714;-80
2021/01/16 09:12:36;;;;;;;39.00;21.77;;;;;;;-5.35;81.14;100471.27;1638189;85;25554;-80
2021/01/16 09:15:39;;;;;;;40.87;19.43;;;;;;;-5.29;81.23;100464.68;1641085;85;26563;-81
2021/01/16 09:18:09;;;;;;;;;;;;;;;-5.29;81.20;100460.86;1648273;85;25778;-80
2021/01/16 09:20:43;;;;;;;44.00;21.23;;;;;;;-5.24;81.31;100460.23;1648129;85;25747;-81
2021/01/16 09:23:31;;;;;;;32.57;18.33;;;;;;;-5.22;81.46;100454.61;1646424;85;26448;-81
2021/01/16 09:26:06;;;;;;;32.77;16.90;;;;;;;-5.27;81.61;100450.59;1641807;85;25775;-81
2021/01/16 09:28:55;;;;;;;33.07;16.93;;;;;;;-5.26;81.75;100450.55;1650242;85;25798;-81
2021/01/16 09:31:41;;;;;;;35.80;18.52;;;;;;;-5.19;81.88;100445.56;1647546;85;25912;-81
2021/01/16 09:34:12;;;;;;;36.00;18.47;;;;;;;-5.18;81.81;100442.59;1640526;85;25822;-81
2021/01/16 09:36:42;;;;;;;41.00;19.33;;;;;;;-5.16;81.91;100435.69;1641137;85;25627;-81
2021/01/16 09:39:22;;;;;;;36.87;21.40;;;;;;;-5.11;82.04;100427.88;1631295;85;25309;-81
2021/01/16 09:41:52;;;;;;;27.48;15.75;;;;;;;-5.11;81.99;100427.88;1639118;85;25755;-81
2021/01/16 09:44:49;;;;;;;37.63;18.47;;;;;;;-5.10;82.05;100417.63;1646416;85;25716;-80
2021/01/16 09:47:33;;;;;;;28.47;16.07;;;;;;;-5.03;82.24;100416.91;1636242;85;25890;-80
2021/01/16 09:50:09;;;;;;;27.23;16.00;;;;;;;-4.97;82.32;100412.82;1631696;85;26299;-81
2021/01/16 09:52:35;;;;;;;26.20;14.23;;;;;;;-4.87;82.45;100400.08;1643721;85;26385;-81
2021/01/16 09:55:03;;;;;;;29.40;15.28;;;;;;;-4.86;82.21;100395.34;1645198;85;25344;-81
2021/01/16 09:57:38;;;;;;;29.20;16.40;;;;;;;-4.79;82.37;100384.00;1647028;85;26554;-81
2021/01/16 10:00:15;;;;;;;32.23;16.93;;;;;;;-4.71;82.42;100383.22;1647231;85;25774;-80
2021/01/16 10:02:45;;;;;;;28.60;15.23;;;;;;;-4.62;82.50;100379.44;1646406;85;25880;-81
2021/01/16 10:05:27;;;;;;;27.27;14.87;;;;;;;-4.56;82.48;100367.68;1644470;85;25802;-81
2021/01/16 10:07:55;;;;;;;28.23;15.97;;;;;;;-4.55;82.41;100367.26;1640172;85;26272;-81
2021/01/16 10:10:22;;;;;;;26.37;15.10;;;;;;;-4.56;82.29;100360.03;1638481;86;25789;-81
2021/01/16 10:13:00;;;;;;;28.35;15.98;;;;;;;-4.50;82.43;100352.58;1646810;85;25908;-81
2021/01/16 10:15:32;;;;;;;27.93;15.83;;;;;;;-4.51;82.57;100345.80;1654184;85;26420;-81
2021/01/16 10:17:58;;;;;;;24.13;15.17;;;;;;;-4.48;82.67;100338.02;1647645;85;26361;-81
2021/01/16 10:20:35;;;;;;;35.27;17.47;;;;;;;-4.49;82.61;100328.27;1642012;85;26400;-81
2021/01/16 10:23:07;;;;;;;28.83;15.37;;;;;;;-4.42;82.87;100319.91;1640916;85;25725;-81
2021/01/16 10:25:43;;;;;;;33.33;17.17;;;;;;;-4.36;82.77;100323.44;1648355;85;25902;-81
2021/01/16 10:28:30;;;;;;;30.25;15.08;;;;;;;-4.35;82.71;100315.33;1649117;85;25902;-81
2021/01/16 10:31:01;;;;;;;32.40;17.30;;;;;;;-4.32;82.81;100301.97;1642086;85;25932;-81
2021/01/16 10:33:43;;;;;;;32.23;16.77;;;;;;;-4.22;82.97;100307.48;1633909;85;25804;-81
2021/01/16 10:36:18;;;;;;;36.83;18.37;;;;;;;-4.19;82.86;100295.03;1647679;85;25572;-80
2021/01/16 10:38:53;;;;;;;31.20;18.50;;;;;;;-4.14;82.96;100293.91;1658523;85;25837;-81
2021/01/16 10:41:33;;;;;;;33.08;17.82;;;;;;;-4.11;82.98;100291.21;1638642;86;25617;-80
2021/01/16 10:44:04;;;;;;;33.28;17.90;;;;;;;-4.09;83.12;100284.31;1640100;85;32717;-81
2021/01/16 10:46:51;;;;;;;37.73;20.63;;;;;;;-4.07;83.34;100276.11;1630835;85;25801;-81
2021/01/16 10:49:30;;;;;;;34.27;19.23;;;;;;;-4.07;83.31;100274.84;1647347;85;25924;-81
2021/01/16 10:52:01;;;;;;;35.05;20.37;;;;;;;-4.02;83.35;100261.86;1637435;85;25767;-81
2021/01/16 10:54:28;;;;;;;38.88;21.57;;;;;;;-3.99;83.49;100252.77;1639141;85;25769;-80
2021/01/16 10:57:01;;;;;;;40.63;21.75;;;;;;;-3.95;83.60;100269.61;1649097;85;25853;-81
2021/01/16 10:59:31;;;;;;;41.93;23.27;;;;;;;-3.91;83.64;100269.00;1618613;87;25761;-81
2021/01/16 11:01:59;;;;;;;42.35;25.68;;;;;;;-3.90;83.66;100257.45;1635027;86;25588;-81
2021/01/16 11:04:29;;;;;;;46.53;25.62;;;;;;;-3.89;83.76;100248.05;1639001;85;26458;-81
2021/01/16 11:07:01;;;;;;;38.55;22.77;;;;;;;-3.88;83.87;100240.77;1637687;85;26407;-81
2021/01/16 11:09:39;;;;;;;36.45;20.72;;;;;;;-3.89;84.22;100240.40;1634218;86;26514;-81
2021/01/16 11:12:08;;;;;;;37.90;21.15;;;;;;;-3.88;84.41;100239.03;1634347;86;25916;-81
2021/01/16 11:14:40;;;;;;;36.53;19.48;;;;;;;-3.83;84.39;100227.32;1648736;85;25786;-81
2021/01/16 11:17:11;;;;;;;36.25;19.50;;;;;;;-3.78;84.56;100225.83;1617195;86;26062;-81
2021/01/16 11:19:41;;;;;;;37.88;22.93;;;;;;;-3.73;84.70;100222.59;1636630;85;26406;-81
2021/01/16 11:22:13;;;;;;;36.23;22.27;;;;;;;-3.70;84.78;100206.66;1628988;86;33732;-81
2021/01/16 11:25:08;;;;;;;36.68;22.62;;;;;;;-3.63;84.97;100211.84;1653403;85;25869;-81
2021/01/16 11:27:36;;;;;;;38.85;21.90;;;;;;;-3.60;84.93;100205.29;1640910;85;25864;-81
2021/01/16 11:30:10;;;;;;;33.38;21.35;;;;;;;-3.54;85.06;100191.38;1643047;85;25921;-81
2021/01/16 11:32:38;;;;;;;35.25;19.45;;;;;;;-3.50;84.95;100186.92;1646097;85;26334;-81